Time;durP1;ratioP1;P1;durP2;ratioP2;P2;SDS_P1;SDS_P2;PMS_P1;PMS_P2;Temp;Humidity;BMP_temperature;BMP_pressure;BME280_temperature;BME280_humidity;BME280_pressure;Samples;Min_cycle;Max_cycle;Signal;HPM_P1;HPM_P2
2024/02/21 00:00:27;;;;;;;47.05;11.75;;;7.20;100.00;;;;;;5065340;28;20405;-72
2024/02/21 00:02:55;;;;;;;48.47;13.38;;;7.10;100.00;;;;;;5085895;28;20048;-72
2024/02/21 00:05:25;;;;;;;38.72;11.30;;;7.10;100.00;;;;;;5068070;28;20493;-72
2024/02/21 00:07:52;;;;;;;43.63;12.45;;;7.20;100.00;;;;;;5071430;28;20041;-72
2024/02/21 00:10:19;;;;;;;44.10;12.07;;;7.10;100.00;;;;;;5070658;28;20045;-72
2024/02/21 00:12:46;;;;;;;48.10;12.43;;;7.10;100.00;;;;;;5063546;22;20052;-70
2024/02/21 00:15:13;;;;;;;43.80;12.82;;;7.10;100.00;;;;;;4987713;28;20062;-70
2024/02/21 00:17:40;;;;;;;45.20;13.43;;;7.10;100.00;;;;;;4979495;28;20127;-70
2024/02/21 00:20:07;;;;;;;47.05;12.93;;;7.10;100.00;;;;;;4994081;28;20213;-70
2024/02/21 00:22:34;;;;;;;46.72;12.52;;;7.10;100.00;;;;;;4990849;28;20069;-70
2024/02/21 00:25:01;;;;;;;56.20;12.18;;;7.00;100.00;;;;;;4986954;28;20057;-70
2024/02/21 00:27:28;;;;;;;44.97;12.88;;;7.00;100.00;;;;;;4991193;28;20465;-70
2024/02/21 00:29:55;;;;;;;47.30;13.13;;;7.00;100.00;;;;;;4987800;28;20529;-70
2024/02/21 00:32:22;;;;;;;43.40;12.27;;;7.00;100.00;;;;;;4984559;28;20082;-70
2024/02/21 00:34:48;;;;;;;38.30;12.63;;;7.00;100.00;;;;;;4986448;28;20106;-70
2024/02/21 00:37:15;;;;;;;46.55;14.18;;;7.00;100.00;;;;;;4986040;28;20394;-70
2024/02/21 00:39:42;;;;;;;60.28;15.07;;;7.00;100.00;;;;;;4989811;28;20057;-70
2024/02/21 00:42:09;;;;;;;51.95;14.45;;;7.00;100.00;;;;;;4991027;28;20050;-71
2024/02/21 00:44:36;;;;;;;58.47;15.60;;;7.00;100.00;;;;;;4989315;28;20054;-70
2024/02/21 00:47:03;;;;;;;60.25;14.82;;;7.00;100.00;;;;;;4987435;28;20050;-70
2024/02/21 00:49:29;;;;;;;43.58;14.48;;;7.00;100.00;;;;;;4989142;28;20039;-70
2024/02/21 00:51:56;;;;;;;66.30;15.73;;;7.00;100.00;;;;;;4985526;28;20562;-70
2024/02/21 00:54:23;;;;;;;57.15;14.50;;;7.00;100.00;;;;;;4989432;28;20148;-70
2024/02/21 00:56:51;;;;;;;51.13;15.27;;;7.00;100.00;;;;;;4989710;28;20061;-70
2024/02/21 00:59:18;;;;;;;57.53;15.73;;;7.00;100.00;;;;;;4987118;28;20082;-70
2024/02/21 01:01:45;;;;;;;57.75;15.68;;;7.00;100.00;;;;;;4989326;28;20056;-70
2024/02/21 01:04:12;;;;;;;107.88;35.50;;;7.00;100.00;;;;;;4987003;28;20116;-70
2024/02/21 01:06:42;;;;;;;48.47;14.90;;;7.00;100.00;;;;;;5009323;28;20058;-70
2024/02/21 01:09:09;;;;;;;51.53;15.57;;;7.00;100.00;;;;;;4988514;28;20042;-70
2024/02/21 01:11:36;;;;;;;54.42;15.93;;;7.00;100.00;;;;;;4984512;28;20534;-70
2024/02/21 01:14:03;;;;;;;55.60;14.85;;;7.00;100.00;;;;;;4988008;28;20866;-70
2024/02/21 01:16:30;;;;;;;92.00;31.20;;;7.00;100.00;;;;;;4984483;28;20705;-71
2024/02/21 01:18:57;;;;;;;55.65;16.38;;;7.10;100.00;;;;;;4994486;28;20451;-71
2024/02/21 01:21:24;;;;;;;65.35;17.17;;;7.10;100.00;;;;;;4988127;28;20409;-71
2024/02/21 01:23:51;;;;;;;56.90;16.25;;;7.10;100.00;;;;;;4989512;28;20051;-71
2024/02/21 01:26:18;;;;;;;57.40;16.20;;;7.10;100.00;;;;;;5002089;28;20079;-70
2024/02/21 01:28:45;;;;;;;70.10;17.13;;;7.10;100.00;;;;;;4986585;28;20548;-70
2024/02/21 01:31:12;;;;;;;55.30;18.58;;;7.10;100.00;;;;;;4997867;28;20107;-71
2024/02/21 01:33:39;;;;;;;60.70;17.80;;;7.10;100.00;;;;;;4979023;28;20151;-70
2024/02/21 01:36:07;;;;;;;51.58;17.02;;;7.10;100.00;;;;;;4983176;28;20119;-70
2024/02/21 01:38:34;;;;;;;62.80;16.52;;;7.10;100.00;;;;;;4983015;28;20141;-71
2024/02/21 01:41:01;;;;;;;67.55;17.40;;;7.10;100.00;;;;;;4985850;28;20414;-70
2024/02/21 01:43:28;;;;;;;63.53;17.33;;;7.10;100.00;;;;;;4989212;28;20062;-71
2024/02/21 01:45:57;;;;;;;57.40;16.65;;;7.10;100.00;;;;;;4984201;28;20558;-71
2024/02/21 01:48:24;;;;;;;63.58;18.25;;;7.10;100.00;;;;;;4986287;28;20103;-70
2024/02/21 01:50:53;;;;;;;57.72;18.70;;;7.10;100.00;;;;;;4998333;28;20046;-70
2024/02/21 01:53:25;;;;;;;54.45;18.45;;;7.10;100.00;;;;;;4984359;28;20055;-71
2024/02/21 01:55:53;;;;;;;54.97;17.60;;;7.10;100.00;;;;;;4985926;28;20161;-71
2024/02/21 01:58:20;;;;;;;60.35;18.23;;;7.20;100.00;;;;;;4983880;28;20046;-70
2024/02/21 02:00:47;;;;;;;52.45;17.15;;;7.20;100.00;;;;;;4988817;28;20127;-71
2024/02/21 02:03:17;;;;;;;63.22;19.33;;;7.20;100.00;;;;;;4986829;28;20050;-70
2024/02/21 02:05:48;;;;;;;59.08;17.80;;;7.20;100.00;;;;;;4985863;28;20058;-70
2024/02/21 02:08:17;;;;;;;56.15;18.00;;;7.20;100.00;;;;;;4985855;28;20058;-70
2024/02/21 02:10:44;;;;;;;57.75;18.88;;;7.20;100.00;;;;;;4982412;28;20082;-70
2024/02/21 02:13:11;;;;;;;54.22;17.58;;;7.20;100.00;;;;;;4983469;28;20121;-71
2024/02/21 02:15:43;;;;;;;60.78;18.73;;;7.20;100.00;;;;;;4989110;28;20058;-70
2024/02/21 02:18:10;;;;;;;63.22;18.95;;;7.20;100.00;;;;;;4986778;28;20494;-70
2024/02/21 02:20:37;;;;;;;58.15;17.85;;;7.30;100.00;;;;;;4984782;28;20770;-70
2024/02/21 02:23:10;;;;;;;65.22;17.42;;;7.30;100.00;;;;;;4983193;28;20058;-70
2024/02/21 02:25:37;;;;;;;57.55;18.17;;;7.30;100.00;;;;;;4985417;28;20054;-70
2024/02/21 02:28:06;;;;;;;51.42;18.17;;;7.30;100.00;;;;;;4989181;28;20072;-70
2024/02/21 02:30:37;;;;;;;51.42;16.48;;;7.40;100.00;;;;;;4982174;28;20100;-70
2024/02/21 02:33:04;;;;;;;67.97;18.10;;;7.30;100.00;;;;;;4984419;28;20429;-70
2024/02/21 02:35:32;;;;;;;61.60;17.98;;;7.40;100.00;;;;;;4987409;28;20064;-70
2024/02/21 02:37:58;;;;;;;58.28;19.33;;;7.40;100.00;;;;;;4983729;28;20054;-70
2024/02/21 02:40:25;;;;;;;56.67;17.02;;;7.40;100.00;;;;;;4989845;28;20065;-70
2024/02/21 02:42:54;;;;;;;50.30;17.40;;;7.40;100.00;;;;;;4985171;28;20058;-71
2024/02/21 02:45:26;;;;;;;54.58;17.80;;;7.40;100.00;;;;;;4988348;28;20549;-71
2024/02/21 02:47:59;;;;;;;58.55;18.20;;;7.40;100.00;;;;;;4985247;28;20910;-70
2024/02/21 02:50:27;;;;;;;61.95;19.13;;;7.40;100.00;;;;;;4983754;28;20054;-71
2024/02/21 02:52:55;;;;;;;59.78;16.85;;;7.40;100.00;;;;;;4984005;28;20050;-70
2024/02/21 02:55:22;;;;;;;56.78;17.20;;;7.40;100.00;;;;;;4984305;28;20115;-71
2024/02/21 02:57:49;;;;;;;55.58;16.90;;;7.50;100.00;;;;;;4982856;28;20054;-71
2024/02/21 03:00:16;;;;;;;52.88;17.40;;;7.50;100.00;;;;;;4983646;28;20053;-71
2024/02/21 03:02:45;;;;;;;47.83;17.90;;;7.50;100.00;;;;;;5000415;28;20050;-71
2024/02/21 03:05:17;;;;;;;65.97;16.50;;;7.50;100.00;;;;;;4991913;28;20752;-71
2024/02/21 03:07:45;;;;;;;50.50;17.30;;;7.50;100.00;;;;;;4987310;28;20389;-71
2024/02/21 03:10:14;;;;;;;60.30;17.20;;;7.50;100.00;;;;;;4984767;28;20111;-71
2024/02/21 03:12:41;;;;;;;55.25;16.75;;;7.40;100.00;;;;;;4984000;28;20062;-71
2024/02/21 03:15:08;;;;;;;57.03;17.92;;;7.50;100.00;;;;;;4984662;28;20062;-70
2024/02/21 03:17:35;;;;;;;57.13;15.10;;;7.40;100.00;;;;;;5005890;28;20789;-71
2024/02/21 03:20:08;;;;;;;50.70;14.32;;;7.40;100.00;;;;;;4986018;28;20062;-71
2024/02/21 03:22:36;;;;;;;47.53;17.40;;;7.40;100.00;;;;;;4987990;28;20051;-71
2024/02/21 03:25:04;;;;;;;55.58;16.08;;;7.40;100.00;;;;;;4982948;28;20101;-71
2024/02/21 03:27:30;;;;;;;42.42;14.80;;;7.40;100.00;;;;;;5002246;28;20053;-71
2024/02/21 03:29:57;;;;;;;50.75;16.58;;;7.40;100.00;;;;;;4996322;28;20054;-71
2024/02/21 03:32:24;;;;;;;45.25;15.18;;;7.40;100.00;;;;;;4982387;28;20074;-71
2024/02/21 03:34:51;;;;;;;40.67;14.57;;;7.30;100.00;;;;;;4987045;28;20050;-71
2024/02/21 03:37:18;;;;;;;48.75;16.02;;;7.30;100.00;;;;;;4981753;28;20108;-71
2024/02/21 03:39:45;;;;;;;39.60;15.68;;;7.30;100.00;;;;;;4984188;28;20058;-71
2024/02/21 03:42:12;;;;;;;43.85;15.05;;;7.30;100.00;;;;;;4990148;28;20062;-71
2024/02/21 03:44:39;;;;;;;37.78;14.27;;;7.30;100.00;;;;;;4986885;28;20143;-71
2024/02/21 03:47:06;;;;;;;44.65;14.95;;;7.40;100.00;;;;;;4986602;28;20078;-71
2024/02/21 03:49:32;;;;;;;52.65;15.95;;;7.40;100.00;;;;;;5014365;28;20129;-71
2024/02/21 03:51:59;;;;;;;44.88;14.50;;;7.40;100.00;;;;;;4985292;28;20129;-71
2024/02/21 03:54:26;;;;;;;46.47;15.63;;;7.40;100.00;;;;;;4992537;28;20082;-71
2024/02/21 03:56:53;;;;;;;51.50;16.30;;;7.40;100.00;;;;;;4989485;28;20123;-71
2024/02/21 03:59:20;;;;;;;55.95;16.27;;;7.50;100.00;;;;;;4985991;28;20138;-70
2024/02/21 04:01:47;;;;;;;45.35;14.88;;;7.50;100.00;;;;;;4990717;28;20086;-71
2024/02/21 04:04:14;;;;;;;55.20;16.38;;;7.50;100.00;;;;;;4986713;28;20133;-71
2024/02/21 04:06:51;;;;;;;51.80;15.80;;;7.50;100.00;;;;;;4985537;28;20054;-71
2024/02/21 04:09:18;;;;;;;50.08;15.93;;;7.50;100.00;;;;;;4992969;28;20386;-71
2024/02/21 04:11:45;;;;;;;41.50;15.82;;;7.50;100.00;;;;;;4989574;28;20053;-71
2024/02/21 04:14:12;;;;;;;45.70;16.17;;;7.50;100.00;;;;;;5019639;28;20046;-71
2024/02/21 04:16:39;;;;;;;52.78;17.08;;;7.50;100.00;;;;;;4986041;28;20050;-71
2024/02/21 04:19:07;;;;;;;37.63;15.20;;;7.60;100.00;;;;;;4977774;28;20050;-71
2024/02/21 04:21:34;;;;;;;56.92;17.30;;;7.60;100.00;;;;;;4986087;28;20050;-71
2024/02/21 04:24:03;;;;;;;44.33;15.18;;;7.60;100.00;;;;;;4988498;28;20602;-71
2024/02/21 04:26:30;;;;;;;41.13;15.02;;;7.60;100.00;;;;;;4988780;28;20043;-71
2024/02/21 04:28:57;;;;;;;51.63;16.65;;;7.60;100.00;;;;;;4991009;28;20097;-71
2024/02/21 04:31:24;;;;;;;44.67;15.68;;;7.60;100.00;;;;;;4985978;28;20043;-70
2024/02/21 04:33:52;;;;;;;40.20;15.23;;;7.60;100.00;;;;;;4983384;28;20134;-71
2024/02/21 04:36:18;;;;;;;50.25;16.65;;;7.60;100.00;;;;;;4989261;28;20050;-71
2024/02/21 04:38:45;;;;;;;52.42;16.30;;;7.60;100.00;;;;;;4989244;28;20081;-70
2024/02/21 04:41:12;;;;;;;59.28;16.70;;;7.60;100.00;;;;;;4987496;28;20054;-71
2024/02/21 04:43:39;;;;;;;50.38;17.58;;;7.70;100.00;;;;;;4990058;28;20066;-71
2024/02/21 04:46:06;;;;;;;43.50;17.40;;;7.70;100.00;;;;;;4989417;28;20080;-70
2024/02/21 04:48:33;;;;;;;53.70;18.02;;;7.70;100.00;;;;;;4992395;28;20054;-71
2024/02/21 04:50:59;;;;;;;59.00;16.13;;;7.70;100.00;;;;;;4988933;28;20046;-71
2024/02/21 04:53:26;;;;;;;55.97;17.02;;;7.70;100.00;;;;;;4984827;28;20055;-71
2024/02/21 04:55:53;;;;;;;54.90;16.73;;;7.70;100.00;;;;;;4986431;28;20636;-71
2024/02/21 04:58:20;;;;;;;54.95;17.13;;;7.70;100.00;;;;;;4984392;28;20187;-71
2024/02/21 05:00:47;;;;;;;47.58;17.23;;;7.70;100.00;;;;;;4994511;28;20824;-71
2024/02/21 05:03:14;;;;;;;53.58;17.42;;;7.70;100.00;;;;;;4989051;28;20061;-71
2024/02/21 05:05:40;;;;;;;68.15;18.55;;;7.70;100.00;;;;;;4978988;28;20047;-71
2024/02/21 05:08:09;;;;;;;60.10;18.25;;;7.80;100.00;;;;;;4983947;28;20046;-71
2024/02/21 05:10:36;;;;;;;56.75;18.33;;;7.70;100.00;;;;;;4982358;28;20054;-71
2024/02/21 05:13:03;;;;;;;59.03;17.90;;;7.70;100.00;;;;;;4997730;28;20062;-71
2024/02/21 05:15:29;;;;;;;55.45;18.90;;;7.70;100.00;;;;;;4993516;28;20185;-71
2024/02/21 05:17:56;;;;;;;56.75;17.65;;;7.70;100.00;;;;;;4990341;28;20059;-71
2024/02/21 05:20:23;;;;;;;52.55;17.92;;;7.80;100.00;;;;;;4982091;28;20064;-71
2024/02/21 05:22:50;;;;;;;55.78;18.00;;;7.80;100.00;;;;;;4982842;28;20054;-71
2024/02/21 05:25:17;;;;;;;55.63;16.63;;;7.80;100.00;;;;;;4994737;28;20046;-70
2024/02/21 05:27:44;;;;;;;48.53;15.73;;;7.80;100.00;;;;;;4985005;28;20068;-71
2024/02/21 05:30:11;;;;;;;62.20;16.80;;;7.80;100.00;;;;;;4984894;28;20099;-71
2024/02/21 05:32:38;;;;;;;68.20;18.73;;;7.70;100.00;;;;;;4983525;28;20078;-71
2024/02/21 05:35:05;;;;;;;60.40;18.30;;;7.70;100.00;;;;;;4986181;28;20486;-71
2024/02/21 05:37:32;;;;;;;63.20;18.25;;;7.70;100.00;;;;;;4983741;28;20077;-70
2024/02/21 05:39:59;;;;;;;57.75;18.52;;;7.70;100.00;;;;;;4990815;28;20050;-70
2024/02/21 05:42:26;;;;;;;60.15;18.08;;;7.70;100.00;;;;;;4984449;28;20054;-70
2024/02/21 05:44:52;;;;;;;63.90;18.40;;;7.70;100.00;;;;;;4984186;28;20105;-70
2024/02/21 05:47:20;;;;;;;68.80;19.45;;;7.70;100.00;;;;;;5026942;28;20155;-70
2024/02/21 05:49:48;;;;;;;59.20;19.98;;;7.60;100.00;;;;;;4989788;28;20392;-70
2024/02/21 05:52:15;;;;;;;63.97;19.63;;;7.60;100.00;;;;;;4986954;28;20060;-71
2024/02/21 05:54:42;;;;;;;56.30;18.10;;;7.60;100.00;;;;;;4996457;28;20065;-70
2024/02/21 05:57:09;;;;;;;57.33;18.73;;;7.60;100.00;;;;;;4987097;28;20619;-70
2024/02/21 05:59:40;;;;;;;61.92;18.52;;;7.60;100.00;;;;;;4982420;28;20623;-70
2024/02/21 06:02:06;;;;;;;63.53;18.92;;;7.60;100.00;;;;;;4983139;28;20057;-73
2024/02/21 06:04:34;;;;;;;56.78;17.60;;;7.60;100.00;;;;;;4983007;28;20047;-71
2024/02/21 06:07:01;;;;;;;62.47;18.13;;;7.50;100.00;;;;;;4984474;28;20134;-73
2024/02/21 06:09:28;;;;;;;60.42;19.90;;;7.50;100.00;;;;;;4983522;28;20104;-73
2024/02/21 06:11:55;;;;;;;59.53;17.02;;;7.50;100.00;;;;;;4982646;28;20050;-70
2024/02/21 06:14:22;;;;;;;56.58;18.45;;;7.50;100.00;;;;;;4983760;28;20124;-70
2024/02/21 06:16:49;;;;;;;55.03;17.63;;;7.50;100.00;;;;;;4985878;28;20149;-69
2024/02/21 06:19:16;;;;;;;54.47;17.70;;;7.50;100.00;;;;;;4979724;28;20050;-71
2024/02/21 06:21:43;;;;;;;56.72;18.00;;;7.50;100.00;;;;;;4978663;28;20062;-74
2024/02/21 06:24:12;;;;;;;50.42;17.73;;;7.50;100.00;;;;;;4983255;28;20047;-73
2024/02/21 06:26:40;;;;;;;58.70;17.13;;;7.50;100.00;;;;;;4996976;28;20051;-72
2024/02/21 06:29:07;;;;;;;50.15;18.23;;;7.50;100.00;;;;;;4981264;28;20046;-71
2024/02/21 06:31:35;;;;;;;63.90;18.20;;;7.50;100.00;;;;;;4982457;28;20500;-73
2024/02/21 06:34:02;;;;;;;55.90;17.25;;;7.50;100.00;;;;;;4981406;28;20050;-77
2024/02/21 06:36:29;;;;;;;58.97;18.83;;;7.50;100.00;;;;;;4985538;28;20062;-71
2024/02/21 06:38:56;;;;;;;52.72;17.75;;;7.50;100.00;;;;;;4984323;28;20129;-71
2024/02/21 06:41:23;;;;;;;54.20;18.08;;;7.50;100.00;;;;;;4978970;28;20111;-70
2024/02/21 06:43:53;;;;;;;57.05;19.15;;;7.50;100.00;;;;;;4981417;28;20057;-71
2024/02/21 06:46:25;;;;;;;51.10;16.65;;;7.50;100.00;;;;;;4980405;28;20046;-71
2024/02/21 06:48:52;;;;;;;58.05;15.25;;;7.50;100.00;;;;;;4983803;28;20042;-71
2024/02/21 06:51:19;;;;;;;54.05;16.10;;;7.50;100.00;;;;;;4982311;28;20050;-71
2024/02/21 06:53:46;;;;;;;50.10;16.92;;;7.50;100.00;;;;;;4983068;28;20046;-71
2024/02/21 06:56:13;;;;;;;52.30;16.83;;;7.50;100.00;;;;;;4984749;28;20604;-71
2024/02/21 06:58:40;;;;;;;52.50;17.17;;;7.50;100.00;;;;;;4985024;28;20169;-71
2024/02/21 07:01:07;;;;;;;51.67;14.77;;;7.50;100.00;;;;;;4992869;28;20130;-71
2024/02/21 07:03:34;;;;;;;45.03;15.95;;;7.50;100.00;;;;;;4994473;28;20529;-71
2024/02/21 07:06:02;;;;;;;51.92;16.48;;;7.50;100.00;;;;;;4980557;28;20050;-70
2024/02/21 07:08:29;;;;;;;45.90;15.43;;;7.50;100.00;;;;;;4981730;28;20050;-70
2024/02/21 07:10:56;;;;;;;30.38;10.10;;;7.50;100.00;;;;;;4982037;28;20513;-71
2024/02/21 07:13:23;;;;;;;33.35;10.52;;;7.50;100.00;;;;;;4982400;28;20050;-71
2024/02/21 07:15:50;;;;;;;15.48;4.07;;;7.40;100.00;;;;;;4982649;28;20107;-71
2024/02/21 07:18:17;;;;;;;13.82;4.18;;;7.40;100.00;;;;;;4986748;28;20107;-71
2024/02/21 07:20:44;;;;;;;17.20;4.32;;;7.30;100.00;;;;;;4985047;28;20066;-71
2024/02/21 07:23:10;;;;;;;15.55;4.38;;;7.30;100.00;;;;;;4986176;28;20597;-71
2024/02/21 07:25:38;;;;;;;15.15;4.78;;;7.30;100.00;;;;;;5000563;28;20082;-71
2024/02/21 07:28:05;;;;;;;16.35;4.57;;;7.30;100.00;;;;;;4994626;28;20080;-71
2024/02/21 07:30:32;;;;;;;15.32;5.47;;;7.40;100.00;;;;;;4984813;28;20402;-71
2024/02/21 07:32:59;;;;;;;23.23;4.32;;;7.40;100.00;;;;;;4987210;28;20100;-71
2024/02/21 07:35:26;;;;;;;13.07;3.53;;;7.30;100.00;;;;;;4984591;28;20046;-71
2024/02/21 07:37:53;;;;;;;18.05;3.30;;;7.30;100.00;;;;;;4983958;28;20533;-71
2024/02/21 07:40:19;;;;;;;11.90;3.33;;;7.30;100.00;;;;;;4985823;28;20766;-71
2024/02/21 07:42:46;;;;;;;15.57;3.10;;;7.30;100.00;;;;;;4987320;28;20043;-71
2024/02/21 07:45:23;;;;;;;13.50;2.85;;;7.40;100.00;;;;;;4985138;28;20061;-71
2024/02/21 07:47:50;;;;;;;16.73;2.90;;;7.40;100.00;;;;;;4984008;28;20101;-71
2024/02/21 07:50:17;;;;;;;14.38;2.85;;;7.40;100.00;;;;;;4984571;28;20077;-71
2024/02/21 07:52:45;;;;;;;12.63;2.67;;;7.40;100.00;;;;;;5005619;28;20057;-71
2024/02/21 07:55:12;;;;;;;5.47;2.22;;;7.40;100.00;;;;;;4983685;28;20137;-71
2024/02/21 07:57:38;;;;;;;7.55;2.33;;;7.50;100.00;;;;;;4983915;28;20163;-71
2024/02/21 08:00:09;;;;;;;7.85;2.30;;;7.50;100.00;;;;;;4983787;28;20066;-71
2024/02/21 08:02:37;;;;;;;9.45;2.10;;;7.50;100.00;;;;;;4985503;28;20556;-71
2024/02/21 08:05:03;;;;;;;10.70;1.73;;;7.50;100.00;;;;;;4982067;28;20971;-71
2024/02/21 08:07:30;;;;;;;7.35;1.95;;;7.50;100.00;;;;;;4985260;28;20586;-71
2024/02/21 08:09:57;;;;;;;4.97;1.73;;;7.40;100.00;;;;;;4984083;28;20050;-71
2024/02/21 08:12:24;;;;;;;8.75;2.00;;;7.50;100.00;;;;;;4983960;28;20046;-71
2024/02/21 08:14:51;;;;;;;15.68;2.13;;;7.50;100.00;;;;;;4993491;28;20049;-71
2024/02/21 08:17:18;;;;;;;5.13;1.35;;;7.60;100.00;;;;;;5003301;28;20103;-71
2024/02/21 08:19:44;;;;;;;6.93;1.92;;;7.60;100.00;;;;;;4985419;28;20054;-71
2024/02/21 08:22:11;;;;;;;3.67;1.45;;;7.70;100.00;;;;;;4984285;28;20054;-71
2024/02/21 08:24:39;;;;;;;5.32;1.55;;;7.70;100.00;;;;;;4984575;28;20054;-71
2024/02/21 08:27:06;;;;;;;4.32;1.70;;;7.80;100.00;;;;;;4985024;28;20129;-71
2024/02/21 08:29:32;;;;;;;5.15;1.50;;;7.90;100.00;;;;;;4984776;28;20139;-71
2024/02/21 08:31:59;;;;;;;3.97;1.40;;;7.90;100.00;;;;;;4986148;28;20795;-71
2024/02/21 08:34:28;;;;;;;5.47;1.55;;;8.00;100.00;;;;;;4984596;28;20069;-71
2024/02/21 08:36:55;;;;;;;4.38;1.95;;;8.00;100.00;;;;;;4983023;28;20474;-72
2024/02/21 08:39:22;;;;;;;4.70;1.85;;;8.10;100.00;;;;;;4984340;28;20088;-71
2024/02/21 08:41:51;;;;;;;6.78;2.60;;;8.20;100.00;;;;;;4985580;28;20054;-71
2024/02/21 08:44:26;;;;;;;8.45;3.38;;;8.30;100.00;;;;;;4984848;28;20057;-70
2024/02/21 08:46:54;;;;;;;11.38;3.35;;;8.20;100.00;;;;;;4984400;28;20076;-72
2024/02/21 08:49:21;;;;;;;10.63;3.40;;;8.30;100.00;;;;;;4985748;28;20042;-71
2024/02/21 08:51:48;;;;;;;7.22;3.17;;;8.20;100.00;;;;;;5012040;28;20050;-71
2024/02/21 08:54:15;;;;;;;9.77;3.40;;;8.20;100.00;;;;;;4984211;28;20824;-71
2024/02/21 08:56:42;;;;;;;13.55;4.18;;;8.20;100.00;;;;;;5014681;28;20078;-71
2024/02/21 08:59:09;;;;;;;13.75;3.95;;;8.20;100.00;;;;;;4983537;28;20054;-71
2024/02/21 09:01:36;;;;;;;8.50;3.95;;;8.20;100.00;;;;;;4981284;28;20049;-71
2024/02/21 09:04:03;;;;;;;11.55;4.20;;;8.30;100.00;;;;;;4983532;28;20057;-71
2024/02/21 09:06:33;;;;;;;13.68;4.35;;;8.30;100.00;;;;;;4984163;28;20133;-71
2024/02/21 09:08:59;;;;;;;17.05;4.50;;;8.30;100.00;;;;;;4984753;28;20081;-71
2024/02/21 09:11:27;;;;;;;13.18;4.82;;;8.30;100.00;;;;;;4982776;28;20057;-71
2024/02/21 09:13:54;;;;;;;15.23;5.13;;;8.30;100.00;;;;;;4997359;28;20048;-71
2024/02/21 09:16:22;;;;;;;17.67;6.25;;;8.30;100.00;;;;;;4983954;28;20082;-71
2024/02/21 09:18:50;;;;;;;19.27;5.22;;;8.30;100.00;;;;;;4983183;28;20133;-71
2024/02/21 09:21:16;;;;;;;13.93;5.93;;;8.30;100.00;;;;;;4989591;28;20490;-71
2024/02/21 09:23:44;;;;;;;16.13;7.25;;;8.40;100.00;;;;;;4983397;28;21106;-71
2024/02/21 09:26:15;;;;;;;18.50;6.35;;;8.30;100.00;;;;;;4979633;28;20054;-71
2024/02/21 09:28:44;;;;;;;19.38;7.07;;;8.40;100.00;;;;;;4982734;28;20050;-71
2024/02/21 09:31:11;;;;;;;19.58;7.85;;;8.50;100.00;;;;;;4982688;28;20089;-72
2024/02/21 09:33:38;;;;;;;19.48;8.52;;;8.60;100.00;;;;;;5007515;28;20050;-71
2024/02/21 09:36:05;;;;;;;18.30;7.32;;;8.70;100.00;;;;;;4982798;28;20057;-71
2024/02/21 09:38:32;;;;;;;15.07;7.30;;;8.80;100.00;;;;;;4979029;28;20746;-71
2024/02/21 09:41:04;;;;;;;23.27;7.80;;;8.90;100.00;;;;;;4983447;28;20050;-71
2024/02/21 09:43:33;;;;;;;16.60;6.68;;;9.00;100.00;;;;;;4983870;28;20058;-71
2024/02/21 09:46:00;;;;;;;18.08;7.65;;;9.00;100.00;;;;;;4992021;28;20058;-71
2024/02/21 09:48:57;;;;;;;15.52;6.97;;;9.10;100.00;;;;;;4983804;28;20139;-71
2024/02/21 09:51:24;;;;;;;18.05;6.38;;;9.50;100.00;;;;;;4990725;28;20719;-71
2024/02/21 09:53:53;;;;;;;12.60;6.78;;;9.70;100.00;;;;;;4982811;28;20078;-71
2024/02/21 09:56:36;;;;;;;17.67;7.35;;;9.90;100.00;;;;;;4981304;28;20057;-71
2024/02/21 09:59:07;;;;;;;16.88;7.03;;;10.00;100.00;;;;;;4978705;28;20078;-71
2024/02/21 10:01:34;;;;;;;15.18;6.80;;;10.40;100.00;;;;;;4983687;28;20077;-71
2024/02/21 10:04:02;;;;;;;17.80;6.03;;;10.50;100.00;;;;;;4982140;28;20470;-71
2024/02/21 10:06:30;;;;;;;10.55;5.13;;;10.40;100.00;;;;;;4982274;28;20042;-71
2024/02/21 10:08:57;;;;;;;10.18;4.35;;;10.20;100.00;;;;;;4984813;28;20053;-71
2024/02/21 10:11:25;;;;;;;11.05;5.03;;;10.10;100.00;;;;;;4986624;28;20046;-71
2024/02/21 10:14:05;;;;;;;10.88;5.13;;;10.30;100.00;;;;;;4983286;28;20038;-71
2024/02/21 10:16:34;;;;;;;8.82;4.78;;;10.40;100.00;;;;;;4984463;28;20392;-71
2024/02/21 10:19:01;;;;;;;7.95;4.47;;;10.40;100.00;;;;;;4982698;28;20054;-71
2024/02/21 10:21:28;;;;;;;6.60;3.10;;;10.40;100.00;;;;;;4981658;28;20053;-71
2024/02/21 10:23:56;;;;;;;6.60;3.28;;;10.40;100.00;;;;;;4983074;28;20050;-71
2024/02/21 10:26:23;;;;;;;6.88;2.78;;;10.50;100.00;;;;;;4983889;28;20510;-71
2024/02/21 10:28:51;;;;;;;8.02;2.67;;;10.70;100.00;;;;;;4982937;28;20139;-71
2024/02/21 10:31:24;;;;;;;7.55;3.08;;;11.20;100.00;;;;;;4981587;28;20133;-71
2024/02/21 10:34:02;;;;;;;4.35;2.67;;;11.50;100.00;;;;;;4983341;28;20046;-71
2024/02/21 10:36:30;;;;;;;6.53;2.97;;;11.20;100.00;;;;;;4983520;28;20077;-71
2024/02/21 10:38:57;;;;;;;6.40;3.28;;;11.10;100.00;;;;;;4981609;28;20047;-71
2024/02/21 10:41:24;;;;;;;6.35;3.00;;;11.00;100.00;;;;;;4983527;28;20061;-71
2024/02/21 10:43:55;;;;;;;5.93;3.17;;;11.10;100.00;;;;;;4980878;28;20129;-71
2024/02/21 10:46:24;;;;;;;7.68;2.47;;;11.50;100.00;;;;;;4982455;28;20051;-71
2024/02/21 10:49:07;;;;;;;5.78;2.30;;;11.50;100.00;;;;;;4984190;28;20539;-71
2024/02/21 10:51:37;;;;;;;7.85;2.78;;;11.50;100.00;;;;;;4981255;28;20046;-70
2024/02/21 10:54:25;;;;;;;6.53;2.70;;;11.60;100.00;;;;;;5017790;28;20073;-70
2024/02/21 10:56:53;;;;;;;5.28;2.50;;;11.60;100.00;;;;;;4976162;28;20593;-70
2024/02/21 10:59:20;;;;;;;6.53;2.50;;;11.80;100.00;;;;;;4983801;28;21020;-70
2024/02/21 11:01:47;;;;;;;4.15;2.63;;;12.20;100.00;;;;;;4980548;28;20081;-70
2024/02/21 11:04:16;;;;;;;4.85;2.85;;;12.20;100.00;;;;;;4980993;28;20137;-71
2024/02/21 11:06:44;;;;;;;3.50;2.42;;;12.50;100.00;;;;;;4981334;28;20050;-71
2024/02/21 11:09:11;;;;;;;5.72;3.03;;;12.80;100.00;;;;;;4982984;28;20125;-70
2024/02/21 11:11:40;;;;;;;7.30;3.05;;;12.70;100.00;;;;;;4981652;28;20047;-70
2024/02/21 11:14:17;;;;;;;3.90;2.63;;;12.40;100.00;;;;;;4982919;28;20159;-70
2024/02/21 11:16:44;;;;;;;3.92;1.92;;;12.10;100.00;;;;;;4984399;28;20059;-70
2024/02/21 11:19:28;;;;;;;3.65;2.40;;;11.80;100.00;;;;;;4989236;28;20073;-70
2024/02/21 11:22:01;;;;;;;6.90;2.67;;;11.40;100.00;;;;;;4981410;28;20081;-70
2024/02/21 11:24:33;;;;;;;4.25;2.40;;;11.20;100.00;;;;;;4980739;28;20050;-70
2024/02/21 11:27:12;;;;;;;5.32;2.58;;;11.10;100.00;;;;;;4980287;28;20170;-70
2024/02/21 11:29:42;;;;;;;4.80;2.60;;;11.10;100.00;;;;;;5006731;28;20770;-70
2024/02/21 11:32:11;;;;;;;4.47;2.75;;;11.20;100.00;;;;;;4981377;28;20090;-70
2024/02/21 11:34:39;;;;;;;3.30;2.42;;;11.30;100.00;;;;;;4982152;28;20132;-70
2024/02/21 11:37:17;;;;;;;5.72;2.88;;;11.20;100.00;;;;;;4982852;28;20086;-70
2024/02/21 11:39:44;;;;;;;5.13;2.60;;;11.30;100.00;;;;;;4994760;28;20061;-70
2024/02/21 11:42:12;;;;;;;5.03;2.25;;;11.60;100.00;;;;;;4981704;28;20054;-70
2024/02/21 11:44:40;;;;;;;10.85;2.75;;;12.00;100.00;;;;;;4980796;28;20572;-70
2024/02/21 11:47:07;;;;;;;4.28;2.35;;;12.40;100.00;;;;;;4983820;28;20133;-70
2024/02/21 11:49:42;;;;;;;4.95;1.83;;;12.90;100.00;;;;;;4993935;28;20043;-70
2024/02/21 11:52:08;;;;;;;4.13;2.00;;;12.90;100.00;;;;;;4980252;28;20519;-70
2024/02/21 11:54:35;;;;;;;3.90;2.00;;;12.50;100.00;;;;;;4981639;28;20051;-70
2024/02/21 11:57:04;;;;;;;2.65;1.83;;;12.10;100.00;;;;;;4985815;28;20058;-70
2024/02/21 11:59:32;;;;;;;4.07;1.83;;;12.00;100.00;;;;;;4980864;28;20066;-70
2024/02/21 12:02:00;;;;;;;3.75;2.28;;;12.10;100.00;;;;;;4981889;28;20054;-70
2024/02/21 12:04:28;;;;;;;3.60;1.90;;;12.70;100.00;;;;;;4982861;28;20054;-70
2024/02/21 12:06:56;;;;;;;6.78;1.73;;;12.90;100.00;;;;;;4986030;28;20058;-70
2024/02/21 12:09:24;;;;;;;2.35;1.58;;;12.70;100.00;;;;;;4984632;28;20733;-70
2024/02/21 12:12:01;;;;;;;4.35;1.70;;;12.20;100.00;;;;;;5012709;28;20050;-70
2024/02/21 12:14:30;;;;;;;2.85;1.67;;;12.40;100.00;;;;;;4984879;28;20046;-70
2024/02/21 12:16:58;;;;;;;2.20;1.38;;;12.30;100.00;;;;;;5000124;28;20050;-70
2024/02/21 12:19:25;;;;;;;3.10;1.70;;;12.50;100.00;;;;;;4991507;28;20094;-70
2024/02/21 12:21:54;;;;;;;2.83;1.55;;;13.40;100.00;;;;;;4984616;28;20053;-70
2024/02/21 12:24:23;;;;;;;3.17;1.15;;;13.40;100.00;;;;;;4984545;28;20561;-70
2024/02/21 12:26:52;;;;;;;3.80;1.30;;;13.30;100.00;;;;;;4980988;28;20051;-70
2024/02/21 12:29:20;;;;;;;4.15;1.27;;;14.60;100.00;;;;;;4982928;28;20043;-70
2024/02/21 12:31:47;;;;;;;4.95;1.50;;;14.70;100.00;;;;;;4982394;28;20069;-70
2024/02/21 12:34:15;;;;;;;1.08;0.77;;;14.90;100.00;;;;;;4984900;28;20073;-70